Time;durP1;ratioP1;P1;durP2;ratioP2;P2;SDS_P1;SDS_P2;PMS_P1;PMS_P2;Temp;Humidity;BMP_temperature;BMP_pressure;BME280_temperature;BME280_humidity;BME280_pressure;Samples;Min_cycle;Max_cycle;Signal;HPM_P1;HPM_P2
2022/02/10 00:21:27;;;;;;;11.33;7.80;;;;;;;0.34;100.00;100360.38;4929123;29;20198;-78
2022/02/10 00:34:58;;;;;;;11.83;8.43;;;;;;;0.50;100.00;100373.88;4946547;29;20496;-79
2022/02/10 00:37:35;;;;;;;10.90;7.60;;;;;;;0.55;100.00;100382.19;4944699;29;20225;-81
2022/02/10 00:42:30;;;;;;;10.73;7.70;;;;;;;0.60;100.00;100373.88;4926786;29;20590;-78
2022/02/10 00:44:57;;;;;;;10.83;8.13;;;;;;;0.62;100.00;100374.56;4926749;29;20233;-78
2022/02/10 00:47:26;;;;;;;9.50;7.53;;;;;;;0.63;100.00;100374.44;4927527;29;20188;-78
2022/02/10 00:49:53;;;;;;;9.27;7.40;;;;;;;0.64;100.00;100375.25;4927888;29;20205;-79
2022/02/10 00:52:20;;;;;;;12.03;7.33;;;;;;;0.68;100.00;100377.47;4944040;29;20185;-78
2022/02/10 00:54:46;;;;;;;10.07;7.13;;;;;;;0.71;100.00;100366.66;4943842;29;20209;-78
2022/02/10 00:57:13;;;;;;;9.97;6.93;;;;;;;0.74;100.00;100378.75;4943782;29;20233;-78
2022/02/10 00:59:59;;;;;;;11.63;7.67;;;;;;;0.72;100.00;100392.06;4927421;29;20196;-79
2022/02/10 01:13:18;;;;;;;11.63;6.90;;;;;;;0.64;100.00;100388.44;4930492;29;20192;-79
2022/02/10 01:29:38;;;;;;;16.97;14.10;;;;;;;0.58;100.00;100354.72;4926468;29;20202;-78
2022/02/10 01:32:05;;;;;;;11.60;10.40;;;;;;;0.58;100.00;100360.81;4943066;29;20549;-81
2022/02/10 01:34:35;;;;;;;9.60;7.40;;;;;;;0.52;100.00;100356.09;4926093;29;20490;-78
2022/02/10 01:37:04;;;;;;;8.63;6.10;;;;;;;0.48;100.00;100340.69;4928322;29;20186;-79
2022/02/10 01:39:35;;;;;;;7.80;6.07;;;;;;;0.54;100.00;100358.59;4944103;29;20193;-78
2022/02/10 02:03:37;;;;;;;7.60;5.67;;;;;;;0.66;100.00;100318.75;4929272;29;20182;-78
2022/02/10 02:06:15;;;;;;;6.57;5.43;;;;;;;0.73;100.00;100319.03;4942500;29;20213;-79
2022/02/10 02:08:43;;;;;;;6.43;5.60;;;;;;;0.75;100.00;100312.63;4942474;29;20201;-78
2022/02/10 02:11:09;;;;;;;7.87;5.27;;;;;;;0.69;100.00;100302.69;4909509;29;20233;-78
2022/02/10 02:13:36;;;;;;;8.23;5.50;;;;;;;0.75;100.00;100314.44;4925922;29;20192;-82
2022/02/10 02:16:04;;;;;;;6.83;5.23;;;;;;;0.70;100.00;100314.06;4924673;29;20228;-78
2022/02/10 02:18:31;;;;;;;7.67;5.50;;;;;;;0.69;100.00;100318.50;4925614;29;20201;-79
2022/02/10 02:21:01;;;;;;;8.80;6.17;;;;;;;0.69;100.00;100312.38;4909835;29;20197;-78
2022/02/10 02:23:28;;;;;;;10.63;5.47;;;;;;;0.69;100.00;100313.22;4925776;29;20213;-78
2022/02/10 02:26:04;;;;;;;7.67;5.77;;;;;;;0.70;100.00;100320.13;4888262;29;1089615;-80
2022/02/10 02:28:34;;;;;;;6.77;5.30;;;;;;;0.70;100.00;100317.50;4926604;29;20177;-78
2022/02/10 02:31:07;;;;;;;7.63;5.80;;;;;;;0.72;100.00;100306.81;4910352;29;20478;-78
2022/02/10 03:08:55;;;;;;;6.50;4.87;;;;;;;0.46;100.00;100295.19;4944776;29;20182;-78
2022/02/10 03:11:23;;;;;;;6.43;4.73;;;;;;;0.43;100.00;100293.63;4929390;29;20249;-78
2022/02/10 03:14:04;;;;;;;5.93;4.40;;;;;;;0.43;100.00;100285.72;4928869;29;20292;-78
2022/02/10 04:16:40;;;;;;;5.57;4.17;;;;;;;0.34;100.00;100281.28;4926176;29;20246;-82
2022/02/10 04:27:26;;;;;;;4.53;3.53;;;;;;;0.30;100.00;100269.38;4928016;29;20178;-78
2022/02/10 04:32:26;;;;;;;5.13;3.50;;;;;;;0.27;100.00;100259.94;4911552;29;20296;-78
2022/02/10 04:57:00;;;;;;;4.80;3.60;;;;;;;0.12;100.00;100237.59;4926661;29;20227;-79
2022/02/10 04:59:14;;;;;;;4.87;3.30;;;;;;;0.12;100.00;100234.97;4933580;29;20233;-79
2022/02/10 05:12:41;;;;;;;4.43;3.13;;;;;;;0.08;100.00;100230.94;4928658;29;20277;-79
2022/02/10 05:20:06;;;;;;;4.20;3.37;;;;;;;0.04;100.00;100223.47;4926790;29;20185;-82
2022/02/10 05:22:41;;;;;;;4.97;3.47;;;;;;;0.06;100.00;100229.41;4925327;29;20201;-79
2022/02/10 05:36:01;;;;;;;5.23;3.60;;;;;;;0.01;100.00;100229.81;4942503;29;20478;-78
2022/02/10 05:38:42;;;;;;;7.07;3.60;;;;;;;-0.03;100.00;100237.19;4942060;29;20206;-80
2022/02/10 05:41:52;;;;;;;5.43;3.60;;;;;;;-0.03;100.00;100233.69;4926917;29;20221;-79
2022/02/10 05:50:27;;;;;;;4.10;3.47;;;;;;;-0.04;100.00;100221.50;4926055;29;20237;-78
2022/02/10 05:54:47;;;;;;;5.00;3.50;;;;;;;-0.05;100.00;100222.50;4943479;29;20193;-78
2022/02/10 05:58:04;;;;;;;5.57;3.20;;;;;;;-0.02;100.00;100233.56;4942724;29;20197;-78
2022/02/10 06:56:50;;;;;;;5.33;3.03;;;;;;;0.91;100.00;100240.84;4932167;29;20284;-78
2022/02/10 07:05:30;;;;;;;3.90;2.90;;;;;;;1.12;100.00;100233.53;4917992;29;20297;-78
2022/02/10 08:55:57;;;;;;;3.93;3.40;;;;;;;5.62;100.00;100182.78;4946932;29;20188;-80
2022/02/10 09:14:36;;;;;;;4.10;3.17;;;;;;;6.40;100.00;100182.59;4910170;29;20182;-80
2022/02/10 09:54:00;;;;;;;3.93;3.37;;;;;;;8.47;100.00;100127.97;4930038;29;20586;-78
2022/02/10 10:00:53;;;;;;;4.83;3.43;;;;;;;8.81;100.00;100123.50;4943322;29;20265;-76
2022/02/10 10:03:35;;;;;;;4.60;4.20;;;;;;;9.02;100.00;100127.09;4929563;29;20216;-77
2022/02/10 10:09:12;;;;;;;4.23;3.83;;;;;;;9.29;100.00;100115.50;4928179;29;20574;-78
2022/02/10 10:12:02;;;;;;;4.27;3.50;;;;;;;9.45;100.00;100100.94;4929888;29;20280;-77
2022/02/10 10:14:42;;;;;;;3.73;3.43;;;;;;;9.53;100.00;100106.13;4942878;29;20221;-76
2022/02/10 10:50:32;;;;;;;3.40;3.10;;;;;;;11.09;100.00;100019.72;4942315;29;20177;-76
2022/02/10 11:44:03;;;;;;;4.63;4.20;;;;;;;12.81;85.06;99915.97;4909124;29;20179;-75
2022/02/10 14:25:51;;;;;;;2.63;1.93;;;;;;;14.64;54.35;99776.44;4902943;29;20319;-76
2022/02/10 14:28:18;;;;;;;2.50;2.00;;;;;;;14.78;53.61;99772.38;4919638;29;20621;-74
2022/02/10 14:30:45;;;;;;;2.63;1.87;;;;;;;15.00;52.92;99761.69;4902966;29;20181;-79
2022/02/10 14:33:13;;;;;;;2.63;2.00;;;;;;;15.16;51.45;99768.16;4903084;29;20274;-78
2022/02/10 14:35:57;;;;;;;2.17;1.97;;;;;;;15.28;50.92;99768.88;4892761;29;20195;-79
2022/02/10 15:52:58;;;;;;;4.10;3.60;;;;;;;12.52;79.98;99744.75;4941213;29;20175;-81
2022/02/10 16:17:05;;;;;;;6.60;5.60;;;;;;;11.35;93.04;99728.00;4924316;29;20206;-78
2022/02/10 16:19:33;;;;;;;14.13;5.70;;;;;;;11.31;93.28;99717.94;4940968;29;20242;-77
2022/02/10 16:24:35;;;;;;;7.50;5.50;;;;;;;10.98;96.11;99712.91;4940541;29;20256;-76
2022/02/10 16:30:08;;;;;;;6.03;5.43;;;;;;;10.69;99.16;99713.56;4929151;29;20236;-77
2022/02/10 16:32:40;;;;;;;7.03;5.07;;;;;;;10.59;99.64;99704.16;4927145;29;20233;-75
2022/02/10 16:35:11;;;;;;;7.93;6.13;;;;;;;10.47;100.00;99702.38;4926696;29;20530;-75
2022/02/10 16:37:46;;;;;;;9.40;6.07;;;;;;;10.35;100.00;99707.63;4943676;29;20174;-76
2022/02/10 16:40:18;;;;;;;9.57;6.10;;;;;;;10.19;100.00;99710.00;4928621;29;20178;-79
2022/02/10 16:42:51;;;;;;;8.73;6.00;;;;;;;10.11;100.00;99717.22;4928308;29;20665;-75
2022/02/10 16:45:23;;;;;;;8.17;6.10;;;;;;;10.01;100.00;99713.34;4944407;29;20174;-77
2022/02/10 16:47:55;;;;;;;11.23;6.53;;;;;;;9.88;100.00;99718.78;4913019;29;20676;-77
2022/02/10 16:50:27;;;;;;;9.33;6.80;;;;;;;9.78;100.00;99716.56;4913363;29;20490;-78
2022/02/10 16:53:06;;;;;;;8.20;6.77;;;;;;;9.67;100.00;99714.53;4943362;29;20186;-77
2022/02/10 17:27:41;;;;;;;4.30;3.80;;;;;;;8.37;100.00;99739.31;4942004;29;20225;-77
2022/02/10 17:54:30;;;;;;;12.83;6.50;;;;;;;7.77;100.00;99739.31;4924751;29;20255;-75
2022/02/10 17:56:57;;;;;;;9.27;6.60;;;;;;;7.73;100.00;99751.41;4941358;29;20226;-77
2022/02/10 17:59:24;;;;;;;10.47;4.83;;;;;;;7.72;100.00;99755.06;4924573;29;20273;-79
2022/02/10 18:01:52;;;;;;;6.50;4.83;;;;;;;7.62;100.00;99765.28;4924553;29;20694;-79
2022/02/10 18:04:20;;;;;;;6.20;4.40;;;;;;;7.58;100.00;99772.84;4941508;29;20593;-79
2022/02/10 18:06:52;;;;;;;4.80;4.20;;;;;;;7.60;100.00;99772.66;4924594;29;20190;-77
2022/02/10 18:17:35;;;;;;;5.43;3.87;;;;;;;7.22;100.00;99774.88;4941277;29;20200;-76
2022/02/10 18:20:09;;;;;;;4.90;4.13;;;;;;;7.13;100.00;99778.72;4940850;29;20184;-78
2022/02/10 18:22:48;;;;;;;4.67;3.97;;;;;;;7.08;100.00;99776.63;4925179;29;20269;-79
2022/02/10 18:28:31;;;;;;;5.17;3.70;;;;;;;6.94;100.00;99781.03;4923295;29;20197;-79
2022/02/10 18:33:27;;;;;;;5.20;3.87;;;;;;;6.89;100.00;99794.09;4926220;29;20253;-75
2022/02/10 18:34:08;;;;;;;5.20;4.13;;;;;;;6.81;100.00;99794.22;4921879;29;20563;-74
2022/02/10 19:07:02;;;;;;;13.40;9.90;;;;;;;6.14;100.00;99834.47;4919918;29;20213;-74
2022/02/10 19:09:40;;;;;;;8.83;7.80;;;;;;;6.15;100.00;99836.13;4919689;29;20219;-77
2022/02/10 19:12:15;;;;;;;7.00;5.97;;;;;;;6.07;100.00;99846.03;4905536;29;20189;-77
2022/02/10 19:14:50;;;;;;;7.43;5.53;;;;;;;6.01;100.00;99834.31;4905628;29;20220;-78
2022/02/10 19:17:23;;;;;;;5.90;5.30;;;;;;;5.90;100.00;99840.09;4920643;29;20587;-76
2022/02/10 19:19:50;;;;;;;8.67;5.50;;;;;;;5.78;100.00;99841.53;4901606;29;20649;-77
2022/02/10 19:22:18;;;;;;;7.07;4.37;;;;;;;5.68;100.00;99844.47;4903515;29;20584;-73
2022/02/10 19:24:45;;;;;;;6.40;5.30;;;;;;;5.61;100.00;99842.69;4931900;29;20233;-79
2022/02/10 19:27:13;;;;;;;6.03;5.43;;;;;;;5.52;100.00;99851.75;4907029;29;20209;-77
2022/02/10 19:29:40;;;;;;;6.07;4.57;;;;;;;5.42;100.00;99856.50;4922931;29;20509;-78
2022/02/10 19:32:09;;;;;;;5.50;4.40;;;;;;;5.29;100.00;99862.44;4939306;29;20222;-77
2022/02/10 19:34:37;;;;;;;4.50;4.10;;;;;;;5.17;100.00;99870.03;4939133;29;20189;-76
2022/02/10 19:37:16;;;;;;;7.40;5.60;;;;;;;5.20;100.00;99868.84;4938888;29;20655;-76
2022/02/10 19:39:45;;;;;;;6.63;4.93;;;;;;;5.16;100.00;99872.88;4922388;29;20225;-76
2022/02/10 19:42:12;;;;;;;5.83;4.93;;;;;;;5.13;100.00;99866.06;4922871;29;20194;-79
2022/02/10 19:44:39;;;;;;;6.63;5.03;;;;;;;5.08;100.00;99879.09;4939086;29;20471;-76
2022/02/10 19:47:05;;;;;;;5.00;4.50;;;;;;;5.06;100.00;99877.59;4939769;29;20229;-78
2022/02/10 19:49:36;;;;;;;5.93;4.40;;;;;;;5.00;100.00;99878.28;4939864;29;20697;-75
2022/02/10 19:52:04;;;;;;;5.53;4.90;;;;;;;4.94;100.00;99877.19;4910925;29;20186;-77
2022/02/10 19:54:37;;;;;;;5.13;4.13;;;;;;;4.88;100.00;99876.06;4925960;29;20203;-79
2022/02/10 19:57:04;;;;;;;4.97;4.47;;;;;;;4.85;100.00;99872.94;4911042;29;20288;-78
2022/02/10 19:59:32;;;;;;;6.40;4.77;;;;;;;4.76;100.00;99869.50;4942644;29;20190;-75
2022/02/10 20:01:59;;;;;;;6.27;4.80;;;;;;;4.76;100.00;99877.47;4925406;29;20194;-74
2022/02/10 20:04:25;;;;;;;7.23;5.10;;;;;;;4.69;100.00;99881.00;4908949;29;20228;-79
2022/02/10 20:06:53;;;;;;;6.57;4.73;;;;;;;4.66;100.00;99882.19;4939122;29;20582;-76
2022/02/10 20:09:20;;;;;;;5.00;4.50;;;;;;;4.67;100.00;99885.66;4906625;29;20210;-78
2022/02/10 20:11:51;;;;;;;7.27;4.80;;;;;;;4.58;100.00;99876.09;4924014;29;20199;-77
2022/02/10 20:14:21;;;;;;;5.40;4.23;;;;;;;4.58;100.00;99879.56;4924248;29;20213;-81
2022/02/10 20:16:49;;;;;;;5.67;4.80;;;;;;;4.51;100.00;99880.47;4924089;29;20482;-82
2022/02/10 20:19:16;;;;;;;4.90;4.00;;;;;;;4.47;100.00;99876.50;4907965;29;20428;-80
2022/02/10 20:21:43;;;;;;;5.33;4.83;;;;;;;4.37;100.00;99880.22;4907422;29;20229;-78
2022/02/10 20:24:09;;;;;;;5.77;4.93;;;;;;;4.33;100.00;99873.59;4906899;29;20228;-80
2022/02/10 20:26:36;;;;;;;6.03;4.60;;;;;;;4.28;100.00;99867.97;4924000;29;20191;-79
2022/02/10 20:29:04;;;;;;;6.57;4.97;;;;;;;4.27;100.00;99868.16;4907198;29;20294;-81
2022/02/10 20:31:34;;;;;;;5.73;4.63;;;;;;;4.26;100.00;99867.31;4907527;29;20210;-81
2022/02/10 20:34:03;;;;;;;5.03;4.53;;;;;;;4.25;100.00;99870.97;4892914;29;20753;-81
2022/02/10 20:36:31;;;;;;;8.20;4.90;;;;;;;4.24;100.00;99866.69;4924205;29;20552;-78
2022/02/10 20:38:59;;;;;;;6.53;4.67;;;;;;;4.18;100.00;99867.38;4924162;29;20190;-79
2022/02/10 20:41:30;;;;;;;4.77;4.37;;;;;;;4.11;100.00;99873.50;4907472;29;20540;-79
2022/02/10 20:43:59;;;;;;;6.67;5.00;;;;;;;4.09;100.00;99865.75;4907271;29;20261;-80
2022/02/10 20:46:28;;;;;;;8.30;4.73;;;;;;;4.10;100.00;99882.50;4907263;29;20587;-80
2022/02/10 20:48:56;;;;;;;5.77;4.60;;;;;;;4.08;100.00;99873.88;4907825;29;20234;-81
2022/02/10 20:51:23;;;;;;;6.83;5.10;;;;;;;4.05;100.00;99875.06;4907213;29;20248;-79
2022/02/10 20:53:51;;;;;;;5.23;4.73;;;;;;;4.01;100.00;99871.09;4923740;29;20237;-80
2022/02/10 20:56:20;;;;;;;4.63;4.23;;;;;;;3.98;100.00;99868.75;4906518;29;20194;-77
2022/02/10 20:59:06;;;;;;;5.17;4.67;;;;;;;3.98;100.00;99868.75;4906566;29;20213;-81
2022/02/10 21:01:34;;;;;;;6.03;4.50;;;;;;;3.92;100.00;99854.38;4922762;29;20178;-81
2022/02/10 21:04:03;;;;;;;5.10;4.60;;;;;;;3.94;100.00;99870.09;4907365;29;20186;-78
2022/02/10 21:09:16;;;;;;;4.77;4.30;;;;;;;3.89;100.00;99865.31;4909370;29;20214;-82
2022/02/10 21:11:43;;;;;;;5.30;4.53;;;;;;;3.81;100.00;99862.69;4922729;29;20242;-80
2022/02/10 21:14:17;;;;;;;4.50;4.03;;;;;;;3.76;100.00;99859.72;4921265;29;20493;-80
2022/02/10 21:16:44;;;;;;;7.27;4.37;;;;;;;3.77;100.00;99863.22;4889999;29;20542;-77
2022/02/10 21:19:13;;;;;;;5.57;4.47;;;;;;;3.73;100.00;99859.25;4904512;29;20615;-78
2022/02/10 21:21:41;;;;;;;7.17;4.13;;;;;;;3.68;100.00;99851.00;4889459;29;20221;-79
2022/02/10 21:24:13;;;;;;;5.50;4.60;;;;;;;3.70;100.00;99852.47;4920999;29;20222;-80
2022/02/10 21:26:59;;;;;;;5.43;4.50;;;;;;;3.60;100.00;99845.69;4903316;29;20210;-80
2022/02/10 21:29:27;;;;;;;5.77;4.57;;;;;;;3.58;100.00;99845.88;4890611;29;20216;-78
2022/02/10 21:31:55;;;;;;;6.40;4.80;;;;;;;3.58;100.00;99863.59;4887991;29;20194;-80
2022/02/10 21:34:26;;;;;;;6.93;4.80;;;;;;;3.54;100.00;99857.81;4887974;29;20194;-80
2022/02/10 21:39:52;;;;;;;7.20;6.23;;;;;;;3.58;100.00;99847.69;4919784;29;20242;-80
2022/02/10 21:46:48;;;;;;;8.10;5.83;;;;;;;3.51;100.00;99832.47;4905718;29;20210;-80
2022/02/10 21:59:18;;;;;;;8.90;6.20;;;;;;;3.58;100.00;99845.03;4925140;29;20186;-77
2022/02/10 22:09:28;;;;;;;8.87;6.27;;;;;;;3.41;100.00;99842.41;4928997;29;20765;-77
2022/02/10 22:20:06;;;;;;;7.80;6.20;;;;;;;3.39;100.00;99872.72;4912239;29;20206;-77
2022/02/10 22:22:49;;;;;;;8.27;6.33;;;;;;;3.37;100.00;99872.88;4929032;29;20206;-78
2022/02/10 22:25:17;;;;;;;7.33;5.73;;;;;;;3.39;100.00;99876.22;4928276;29;20256;-79
2022/02/10 22:27:48;;;;;;;9.07;6.00;;;;;;;3.35;100.00;99882.84;4913011;29;20193;-76
2022/02/10 22:30:29;;;;;;;7.30;5.50;;;;;;;3.44;100.00;99883.66;4912915;29;20206;-77
2022/02/10 22:33:14;;;;;;;6.97;5.87;;;;;;;3.59;100.00;99889.09;4928878;29;20479;-77
2022/02/10 22:35:41;;;;;;;7.20;6.17;;;;;;;3.68;100.00;99886.25;4915070;29;20202;-77
2022/02/10 22:38:08;;;;;;;7.23;6.17;;;;;;;3.69;100.00;99874.66;4928834;29;20218;-77
2022/02/10 22:40:56;;;;;;;8.43;6.60;;;;;;;3.86;100.00;99878.94;4948461;23;20232;-77
2022/02/10 22:43:26;;;;;;;6.83;5.83;;;;;;;3.97;100.00;99883.84;4947343;29;20205;-76
2022/02/10 22:45:55;;;;;;;7.33;6.47;;;;;;;4.04;100.00;99885.81;4947358;29;20193;-77
2022/02/10 22:48:24;;;;;;;8.77;6.60;;;;;;;4.13;100.00;99887.44;4946324;29;20218;-78
2022/02/10 22:50:52;;;;;;;7.63;6.73;;;;;;;4.17;100.00;99880.78;4946244;29;20206;-76
2022/02/10 22:53:20;;;;;;;7.90;6.60;;;;;;;4.24;100.00;99879.94;4947245;29;20190;-76
2022/02/10 22:55:47;;;;;;;7.60;6.60;;;;;;;4.34;100.00;99880.53;4929463;29;20552;-77
2022/02/10 22:58:14;;;;;;;8.50;6.97;;;;;;;4.35;100.00;99874.22;4946409;29;20200;-79
2022/02/10 23:00:50;;;;;;;8.37;6.67;;;;;;;4.42;100.00;99887.63;4928785;29;20224;-77
2022/02/10 23:03:22;;;;;;;8.77;6.67;;;;;;;4.47;100.00;99877.34;4946847;29;20209;-79
2022/02/10 23:05:53;;;;;;;6.90;5.97;;;;;;;4.50;100.00;99866.38;4945631;29;20210;-76
2022/02/10 23:08:23;;;;;;;7.87;6.40;;;;;;;4.46;100.00;99878.34;4945610;29;20567;-78
2022/02/10 23:10:52;;;;;;;9.30;6.63;;;;;;;4.54;100.00;99878.28;4945047;29;20237;-76
2022/02/10 23:13:27;;;;;;;8.37;6.70;;;;;;;4.57;100.00;99874.47;4928326;29;20200;-77
2022/02/10 23:15:57;;;;;;;8.27;6.30;;;;;;;4.61;100.00;99876.59;4945722;29;20186;-76
2022/02/10 23:18:27;;;;;;;7.57;6.30;;;;;;;4.67;100.00;99878.53;4928257;29;20194;-78
2022/02/10 23:20:59;;;;;;;9.53;6.60;;;;;;;4.74;100.00;99873.34;4944689;29;20218;-77
2022/02/10 23:23:28;;;;;;;6.73;5.90;;;;;;;4.83;100.00;99875.78;4928406;29;20213;-80
2022/02/10 23:26:00;;;;;;;9.70;7.00;;;;;;;4.81;100.00;99863.66;4946915;29;20189;-79
2022/02/10 23:28:32;;;;;;;9.83;6.50;;;;;;;4.85;100.00;99871.09;4948018;29;20571;-77
2022/02/10 23:31:00;;;;;;;10.83;6.80;;;;;;;4.89;100.00;99863.63;4947329;29;20209;-77
2022/02/10 23:33:31;;;;;;;9.13;7.20;;;;;;;4.90;100.00;99864.47;4930916;29;20277;-77
2022/02/10 23:38:45;;;;;;;9.17;7.27;;;;;;;4.94;100.00;99866.56;4931421;29;20189;-77
2022/02/10 23:44:15;;;;;;;11.17;8.07;;;;;;;5.01;100.00;99869.31;4927947;29;20182;-78
2022/02/10 23:46:56;;;;;;;10.10;8.37;;;;;;;4.97;100.00;99849.44;4912664;29;20202;-77
2022/02/10 23:49:25;;;;;;;12.40;9.17;;;;;;;4.96;100.00;99859.25;4927765;29;20229;-77
2022/02/10 23:51:57;;;;;;;12.23;8.47;;;;;;;5.00;100.00;99857.88;4926935;29;20218;-78
2022/02/10 23:54:38;;;;;;;11.67;9.17;;;;;;;5.02;100.00;99847.91;4910155;29;20190;-78
2022/02/10 23:57:16;;;;;;;12.00;8.80;;;;;;;4.97;100.00;99857.41;4927861;29;20178;-77
